Time;durP1;ratioP1;P1;durP2;ratioP2;P2;SDS_P1;SDS_P2;PMS_P1;PMS_P2;Temp;Humidity;BMP_temperature;BMP_pressure;BME280_temperature;BME280_humidity;BME280_pressure;Samples;Min_cycle;Max_cycle;Signal;HPM_P1;HPM_P2
2022/10/06 00:00:22;;;;;;;8.47;5.00;;;13.70;1.00;;;;;;5088380;28;20464;-70
2022/10/06 00:02:47;;;;;;;8.80;4.40;;;13.70;1.00;;;;;;5079038;28;20199;-70
2022/10/06 00:05:13;;;;;;;13.73;4.57;;;13.60;1.00;;;;;;5081747;28;20172;-70
2022/10/06 00:07:38;;;;;;;8.73;4.20;;;13.60;1.00;;;;;;5074744;28;20195;-70
2022/10/06 00:10:06;;;;;;;8.63;4.67;;;13.60;1.00;;;;;;5075890;28;20279;-70
2022/10/06 00:12:48;;;;;;;7.90;4.10;;;13.60;1.00;;;;;;5078961;28;20223;-70
2022/10/06 00:15:16;;;;;;;7.80;4.33;;;13.70;1.00;;;;;;5081172;28;20530;-70
2022/10/06 00:17:42;;;;;;;7.87;4.40;;;13.60;1.00;;;;;;5085679;28;20422;-69
2022/10/06 00:20:09;;;;;;;7.17;4.40;;;13.60;1.00;;;;;;5082838;28;20994;-70
2022/10/06 00:22:37;;;;;;;7.97;3.83;;;13.60;1.00;;;;;;5087634;28;20756;-69
2022/10/06 00:25:03;;;;;;;7.70;4.13;;;13.60;1.00;;;;;;5083503;28;20537;-70
2022/10/06 00:27:37;;;;;;;9.40;4.40;;;13.60;1.00;;;;;;5084260;28;20452;-71
2022/10/06 00:30:04;;;;;;;9.63;4.70;;;13.70;1.00;;;;;;5079843;28;21034;-70
2022/10/06 00:32:29;;;;;;;6.40;4.50;;;13.60;1.00;;;;;;5088580;28;20453;-70
2022/10/06 00:34:57;;;;;;;10.17;4.37;;;13.50;1.00;;;;;;5084426;28;20527;-69
2022/10/06 00:37:23;;;;;;;7.83;4.90;;;13.40;1.00;;;;;;5088036;28;20642;-70
2022/10/06 00:39:48;;;;;;;6.53;4.87;;;13.60;1.00;;;;;;5084868;28;20502;-70
2022/10/06 00:42:25;;;;;;;12.47;4.20;;;13.40;1.00;;;;;;5085417;28;20282;-70
2022/10/06 00:44:51;;;;;;;6.60;3.57;;;13.50;1.00;;;;;;5088548;28;20167;-70
2022/10/06 00:47:21;;;;;;;7.33;3.83;;;13.50;1.00;;;;;;5084342;28;20480;-70
2022/10/06 00:49:46;;;;;;;7.80;4.10;;;13.50;1.00;;;;;;5083372;28;20449;-70
2022/10/06 00:52:17;;;;;;;6.13;4.20;;;13.40;1.00;;;;;;5087909;28;20413;-69
2022/10/06 00:54:43;;;;;;;6.47;4.43;;;13.50;1.00;;;;;;5084767;28;20241;-70
2022/10/06 00:57:09;;;;;;;6.30;3.97;;;13.40;1.00;;;;;;5085568;28;20841;-70
2022/10/06 00:59:36;;;;;;;7.37;4.20;;;13.40;1.60;;;;;;5082617;28;20215;-70
2022/10/06 01:02:20;;;;;;;12.83;4.20;;;13.40;3.80;;;;;;5092015;28;20551;-70
2022/10/06 01:04:54;;;;;;;8.60;4.23;;;13.50;4.00;;;;;;5091540;28;20520;-70
2022/10/06 01:07:21;;;;;;;7.60;4.47;;;13.50;1.00;;;;;;5087460;28;20445;-69
2022/10/06 01:09:47;;;;;;;5.90;4.00;;;13.50;1.00;;;;;;5083820;28;20498;-70
2022/10/06 01:12:13;;;;;;;9.30;4.33;;;13.50;1.00;;;;;;5083242;28;20835;-70
2022/10/06 01:14:40;;;;;;;6.70;3.93;;;13.40;1.00;;;;;;5092201;28;20180;-70
2022/10/06 01:17:13;;;;;;;6.03;4.23;;;13.40;1.00;;;;;;5085574;28;20438;-71
2022/10/06 01:19:52;;;;;;;6.47;3.83;;;13.40;4.20;;;;;;5088882;28;20461;-69
2022/10/06 01:22:26;;;;;;;6.13;3.97;;;13.40;1.10;;;;;;5091268;28;20498;-70
2022/10/06 01:24:52;;;;;;;8.20;4.40;;;13.40;1.70;;;;;;5088236;28;20465;-69
2022/10/06 01:27:19;;;;;;;8.43;4.07;;;13.40;1.10;;;;;;5092405;28;20441;-70
2022/10/06 01:29:44;;;;;;;8.07;3.80;;;13.40;2.40;;;;;;5084141;28;20203;-69
2022/10/06 01:32:10;;;;;;;10.97;4.90;;;15.20;4.10;;;;;;5090157;28;20859;-69
2022/10/06 01:34:36;;;;;;;7.80;3.87;;;13.30;4.00;;;;;;5078190;28;20846;-70
2022/10/06 01:37:01;;;;;;;5.77;4.20;;;13.30;2.40;;;;;;5084239;28;20187;-70
2022/10/06 01:39:27;;;;;;;5.67;3.93;;;13.30;2.40;;;;;;5078683;28;20205;-70
2022/10/06 01:41:52;;;;;;;6.13;4.00;;;13.30;1.90;;;;;;5084399;28;20722;-70
2022/10/06 01:44:18;;;;;;;9.90;3.70;;;13.30;1.50;;;;;;5084969;28;20164;-69
2022/10/06 01:46:43;;;;;;;10.27;4.50;;;13.30;2.70;;;;;;5091510;28;20223;-70
2022/10/06 01:49:09;;;;;;;5.53;4.30;;;13.20;1.80;;;;;;5088412;28;20195;-69
2022/10/06 01:51:34;;;;;;;8.70;3.90;;;13.20;5.30;;;;;;5085880;28;20179;-70
2022/10/06 01:54:00;;;;;;;6.57;3.87;;;13.10;6.50;;;;;;5071197;28;20227;-70
2022/10/06 01:56:25;;;;;;;13.70;4.30;;;13.10;7.40;;;;;;5085911;28;20606;-70
2022/10/06 01:58:51;;;;;;;9.07;4.20;;;13.20;8.00;;;;;;5076442;28;20316;-69
2022/10/06 02:01:16;;;;;;;7.30;4.40;;;13.30;6.50;;;;;;5090073;28;20215;-70
2022/10/06 02:03:42;;;;;;;6.53;4.20;;;13.30;2.40;;;;;;5083091;28;20234;-70
2022/10/06 02:06:08;;;;;;;5.93;4.00;;;13.40;5.00;;;;;;5090200;28;20168;-70
2022/10/06 02:08:34;;;;;;;8.23;4.30;;;13.40;4.10;;;;;;5082847;28;20199;-70
2022/10/06 02:11:08;;;;;;;8.23;4.13;;;13.40;4.50;;;;;;5084701;28;20507;-70
2022/10/06 02:13:35;;;;;;;7.10;4.90;;;13.40;5.10;;;;;;5088764;28;20210;-70
2022/10/06 02:16:00;;;;;;;7.00;4.77;;;13.50;3.60;;;;;;5084983;28;20476;-70
2022/10/06 02:18:26;;;;;;;9.70;4.70;;;13.40;5.20;;;;;;5081597;28;21003;-70
2022/10/06 02:20:51;;;;;;;7.93;4.27;;;13.50;4.90;;;;;;5084907;28;20177;-71
2022/10/06 02:23:17;;;;;;;8.27;4.13;;;13.50;2.90;;;;;;5091081;28;20232;-69
2022/10/06 02:25:42;;;;;;;5.77;3.70;;;13.50;3.30;;;;;;5086806;28;20518;-70
2022/10/06 02:28:08;;;;;;;5.83;4.40;;;13.40;4.80;;;;;;5087148;28;20180;-70
2022/10/06 02:30:34;;;;;;;5.23;3.80;;;13.50;5.30;;;;;;5087133;28;20196;-70
2022/10/06 02:32:59;;;;;;;8.63;3.67;;;13.50;5.00;;;;;;5090777;28;20586;-70
2022/10/06 02:35:25;;;;;;;8.60;4.20;;;13.50;2.90;;;;;;5088690;28;20211;-69
2022/10/06 02:37:50;;;;;;;7.83;4.20;;;13.60;1.90;;;;;;5090059;28;20499;-70
2022/10/06 02:40:16;;;;;;;6.03;3.93;;;13.60;4.60;;;;;;5086256;28;20200;-70
2022/10/06 02:42:42;;;;;;;4.80;4.00;;;13.60;2.20;;;;;;5083288;28;20690;-70
2022/10/06 02:45:08;;;;;;;10.73;3.73;;;13.50;4.80;;;;;;5087709;28;20171;-70
2022/10/06 02:47:35;;;;;;;7.17;4.27;;;13.70;3.20;;;;;;5086741;28;20251;-70
2022/10/06 02:50:04;;;;;;;9.47;4.17;;;13.80;1.00;;;;;;5089504;28;20418;-70
2022/10/06 02:52:37;;;;;;;7.53;3.63;;;13.80;1.00;;;;;;5081047;28;20445;-70
2022/10/06 02:55:04;;;;;;;7.17;3.70;;;14.00;1.00;;;;;;5080918;28;20818;-70
2022/10/06 02:57:30;;;;;;;8.50;4.20;;;14.00;1.00;;;;;;5084600;28;21016;-70
2022/10/06 02:59:56;;;;;;;4.93;3.90;;;14.10;1.00;;;;;;5081170;28;20536;-69
2022/10/06 03:02:21;;;;;;;15.53;3.97;;;14.10;1.00;;;;;;5087922;28;20200;-70
2022/10/06 03:04:47;;;;;;;6.40;4.03;;;14.20;1.00;;;;;;5078839;28;20262;-70
2022/10/06 03:07:13;;;;;;;8.53;4.00;;;14.10;1.00;;;;;;5088497;28;20217;-70
2022/10/06 03:09:39;;;;;;;7.40;4.27;;;14.10;1.00;;;;;;5083604;28;20675;-70
2022/10/06 03:12:04;;;;;;;5.40;3.87;;;14.20;1.00;;;;;;5085285;28;20442;-70
2022/10/06 03:14:30;;;;;;;6.53;4.07;;;14.10;1.00;;;;;;5089164;28;20601;-70
2022/10/06 03:16:56;;;;;;;5.60;3.50;;;14.20;1.00;;;;;;5093330;28;20172;-70
2022/10/06 03:19:21;;;;;;;8.67;3.97;;;14.30;1.00;;;;;;5089538;28;20191;-70
2022/10/06 03:21:47;;;;;;;6.83;4.00;;;14.30;1.00;;;;;;5085774;28;20737;-70
2022/10/06 03:24:13;;;;;;;7.27;4.40;;;14.40;1.00;;;;;;5090195;28;20216;-70
2022/10/06 03:26:46;;;;;;;7.27;4.37;;;14.50;1.00;;;;;;5082928;28;20207;-70
2022/10/06 03:29:11;;;;;;;10.00;4.67;;;14.50;1.00;;;;;;5089168;28;20442;-70
2022/10/06 03:31:38;;;;;;;5.50;4.20;;;14.60;3.80;;;;;;5086839;28;20483;-70
2022/10/06 03:34:04;;;;;;;6.47;4.37;;;14.70;2.60;;;;;;5088593;28;20179;-70
2022/10/06 03:36:31;;;;;;;9.30;5.00;;;14.80;4.00;;;;;;5084013;28;20434;-70
2022/10/06 03:38:57;;;;;;;8.87;4.67;;;14.80;1.00;;;;;;5074745;28;20191;-70
2022/10/06 03:41:28;;;;;;;7.40;4.57;;;14.90;1.00;;;;;;5080217;28;20422;-69
2022/10/06 03:43:56;;;;;;;7.00;4.53;;;15.00;1.00;;;;;;5087181;28;20168;-70
2022/10/06 03:46:23;;;;;;;6.23;4.70;;;15.10;1.00;;;;;;5084461;28;20505;-70
2022/10/06 03:48:51;;;;;;;6.00;4.27;;;15.10;1.00;;;;;;5099546;28;20424;-69
2022/10/06 03:51:21;;;;;;;7.93;4.50;;;15.10;1.00;;;;;;5085536;28;20418;-70
2022/10/06 03:53:49;;;;;;;10.70;4.50;;;15.10;1.00;;;;;;5084877;28;20434;-70
2022/10/06 03:56:29;;;;;;;10.43;4.20;;;15.20;1.00;;;;;;5087365;28;20900;-70
2022/10/06 03:58:58;;;;;;;6.10;4.00;;;15.20;1.00;;;;;;5079863;28;20445;-70
2022/10/06 04:01:29;;;;;;;7.10;4.53;;;15.20;1.00;;;;;;5088598;28;20682;-70
2022/10/06 04:03:56;;;;;;;11.53;5.10;;;15.20;3.50;;;;;;5086044;28;20819;-70
2022/10/06 04:06:23;;;;;;;8.80;4.40;;;15.30;5.40;;;;;;5076932;28;20418;-70
2022/10/06 04:08:50;;;;;;;7.40;4.30;;;15.40;4.80;;;;;;5082045;28;20951;-70
2022/10/06 04:11:17;;;;;;;7.07;4.37;;;15.60;2.70;;;;;;5086843;28;20410;-70
2022/10/06 04:13:44;;;;;;;8.10;4.87;;;15.60;2.10;;;;;;5086988;28;20462;-70
2022/10/06 04:16:21;;;;;;;6.77;4.20;;;15.60;1.80;;;;;;5088124;28;20410;-70
2022/10/06 04:18:52;;;;;;;8.00;5.27;;;15.70;1.30;;;;;;5085613;28;21010;-70
2022/10/06 04:21:18;;;;;;;6.10;4.27;;;15.70;2.20;;;;;;5086778;28;20406;-70
2022/10/06 04:23:45;;;;;;;7.53;5.50;;;15.70;1.70;;;;;;5088159;28;20657;-70
2022/10/06 04:26:16;;;;;;;8.30;5.47;;;15.70;1.00;;;;;;5087694;28;20410;-70
2022/10/06 04:28:43;;;;;;;6.97;4.90;;;15.80;1.00;;;;;;5086100;28;20601;-70
2022/10/06 04:31:21;;;;;;;9.40;6.00;;;15.80;1.00;;;;;;5088354;28;20485;-70
2022/10/06 04:33:49;;;;;;;8.40;5.60;;;15.80;1.00;;;;;;5085855;28;20519;-70
2022/10/06 04:36:27;;;;;;;10.90;4.90;;;15.80;1.00;;;;;;5082554;28;20556;-70
2022/10/06 04:38:57;;;;;;;10.17;5.00;;;15.80;1.00;;;;;;5084789;28;20469;-70
2022/10/06 04:41:26;;;;;;;8.40;5.70;;;15.70;1.00;;;;;;5077321;28;20429;-70
2022/10/06 04:43:53;;;;;;;9.77;6.40;;;15.70;2.00;;;;;;5089046;28;20450;-70
2022/10/06 04:46:20;;;;;;;9.80;5.70;;;15.70;2.70;;;;;;5090453;28;20461;-70
2022/10/06 04:48:46;;;;;;;8.00;5.33;;;15.70;3.70;;;;;;5092053;28;20441;-70
2022/10/06 04:51:13;;;;;;;7.80;5.33;;;15.70;4.80;;;;;;5081325;28;20913;-70
2022/10/06 04:53:39;;;;;;;7.90;4.97;;;15.60;5.90;;;;;;5088939;28;20921;-70
2022/10/06 04:56:09;;;;;;;7.90;4.90;;;15.60;7.10;;;;;;5087235;28;20425;-70
2022/10/06 04:58:38;;;;;;;10.93;4.87;;;15.60;7.70;;;;;;5092271;28;20274;-70
2022/10/06 05:01:14;;;;;;;10.10;5.63;;;15.60;7.10;;;;;;5085944;28;20567;-70
2022/10/06 05:03:39;;;;;;;9.43;5.30;;;15.60;7.20;;;;;;5092664;28;20867;-69
2022/10/06 05:06:07;;;;;;;9.60;5.60;;;15.60;7.60;;;;;;5087975;28;20503;-70
2022/10/06 05:08:34;;;;;;;8.00;5.40;;;15.50;9.70;;;;;;5092997;28;20198;-70
2022/10/06 05:11:08;;;;;;;9.73;6.20;;;15.50;10.90;;;;;;5091205;28;20818;-70
2022/10/06 05:13:36;;;;;;;6.20;5.33;;;15.60;9.20;;;;;;5089056;28;20578;-70
2022/10/06 05:16:02;;;;;;;6.27;5.23;;;15.60;8.50;;;;;;5076000;28;21078;-70
2022/10/06 05:18:29;;;;;;;13.50;5.40;;;15.60;7.70;;;;;;5092697;28;20435;-70
2022/10/06 05:21:00;;;;;;;9.43;5.63;;;15.60;8.70;;;;;;5083026;28;20442;-69
2022/10/06 05:23:26;;;;;;;9.00;5.00;;;15.60;8.40;;;;;;5091887;28;21053;-70
2022/10/06 05:25:54;;;;;;;9.50;5.53;;;17.40;10.30;;;;;;5083785;28;20433;-70
2022/10/06 05:28:20;;;;;;;9.20;5.40;;;15.60;10.00;;;;;;5089559;28;20421;-70
2022/10/06 05:31:00;;;;;;;9.47;5.20;;;15.60;9.00;;;;;;5085776;28;20810;-70
2022/10/06 05:33:29;;;;;;;10.17;5.13;;;15.60;8.00;;;;;;5091639;28;20414;-70
2022/10/06 05:36:00;;;;;;;9.13;5.13;;;15.70;7.60;;;;;;5085357;28;20757;-70
2022/10/06 05:38:27;;;;;;;8.17;5.60;;;15.70;7.80;;;;;;5091325;28;20559;-70
2022/10/06 05:41:08;;;;;;;8.97;5.40;;;15.70;8.40;;;;;;5085505;28;20493;-69
2022/10/06 05:43:34;;;;;;;8.17;5.50;;;15.70;7.20;;;;;;5078083;28;20428;-75
2022/10/06 05:46:02;;;;;;;12.83;6.10;;;15.90;5.70;;;;;;5074297;28;20940;-76
2022/10/06 05:48:28;;;;;;;8.10;5.20;;;15.90;4.20;;;;;;5089092;28;20588;-75
2022/10/06 05:51:06;;;;;;;9.10;5.07;;;15.90;2.20;;;;;;5084550;28;20462;-74
2022/10/06 05:53:34;;;;;;;6.90;4.77;;;15.90;1.70;;;;;;5086888;28;20437;-76
2022/10/06 05:56:08;;;;;;;6.20;4.67;;;15.90;1.00;;;;;;5080084;28;20430;-76
2022/10/06 05:58:36;;;;;;;7.03;4.63;;;15.90;1.00;;;;;;5088092;28;20440;-77
2022/10/06 06:01:09;;;;;;;8.60;4.80;;;15.90;1.10;;;;;;5072780;28;20869;-75
2022/10/06 06:03:36;;;;;;;8.50;5.67;;;15.80;3.30;;;;;;5079561;28;20647;-75
2022/10/06 06:06:02;;;;;;;8.27;4.97;;;15.80;4.10;;;;;;5086471;28;20430;-75
2022/10/06 06:08:27;;;;;;;21.00;5.37;;;15.80;4.30;;;;;;5082160;28;20455;-71
2022/10/06 06:10:53;;;;;;;10.57;5.60;;;15.80;6.00;;;;;;5075651;28;20582;-72
2022/10/06 06:13:22;;;;;;;6.90;4.80;;;15.90;5.80;;;;;;5081621;28;20707;-73
2022/10/06 06:15:59;;;;;;;7.80;5.43;;;15.90;4.20;;;;;;5081877;28;20670;-71
2022/10/06 06:18:30;;;;;;;8.60;5.43;;;15.90;4.00;;;;;;5090765;28;20440;-72
2022/10/06 06:21:00;;;;;;;7.83;5.10;;;15.90;4.00;;;;;;5084944;28;20800;-72
2022/10/06 06:23:31;;;;;;;11.37;5.53;;;16.00;2.60;;;;;;5076341;28;20861;-71
2022/10/06 06:26:07;;;;;;;11.23;5.17;;;16.00;1.10;;;;;;5086856;28;20434;-71
2022/10/06 06:28:34;;;;;;;7.80;4.20;;;16.10;1.00;;;;;;5076833;28;21031;-71
2022/10/06 06:31:01;;;;;;;7.60;4.43;;;16.10;1.00;;;;;;5078419;28;20426;-71
2022/10/06 06:33:28;;;;;;;7.80;4.50;;;16.10;1.00;;;;;;5086722;28;20904;-72
2022/10/06 06:35:53;;;;;;;6.73;4.27;;;16.20;1.00;;;;;;5088241;28;20826;-70
2022/10/06 06:38:19;;;;;;;8.80;3.90;;;16.30;1.00;;;;;;5085057;28;20434;-71
2022/10/06 06:40:44;;;;;;;7.23;4.70;;;16.30;1.00;;;;;;5086174;28;20172;-71
2022/10/06 06:43:13;;;;;;;9.77;6.00;;;16.30;1.00;;;;;;5086198;28;20260;-72
2022/10/06 06:45:39;;;;;;;7.13;4.47;;;16.40;1.00;;;;;;5078413;28;20198;-71
2022/10/06 06:48:04;;;;;;;15.03;4.90;;;16.60;1.00;;;;;;5082049;28;20427;-72
2022/10/06 06:50:31;;;;;;;8.30;5.27;;;16.70;1.00;;;;;;5086977;28;20263;-71
2022/10/06 06:52:57;;;;;;;7.93;5.00;;;16.90;1.00;;;;;;5073191;28;20176;-70
2022/10/06 06:55:22;;;;;;;5.83;4.70;;;17.20;1.00;;;;;;5072474;28;20463;-70
2022/10/06 06:57:48;;;;;;;10.27;5.23;;;17.30;1.00;;;;;;5079629;28;20525;-71
2022/10/06 07:00:15;;;;;;;7.63;4.53;;;17.30;1.00;;;;;;5084198;28;20199;-70
2022/10/06 07:02:41;;;;;;;11.93;5.07;;;17.50;1.00;;;;;;5080098;28;20196;-71
2022/10/06 07:05:09;;;;;;;9.17;4.60;;;17.90;1.00;;;;;;5089010;28;20892;-68
2022/10/06 07:07:35;;;;;;;6.27;4.10;;;18.00;1.00;;;;;;5082694;28;20422;-71
2022/10/06 07:10:01;;;;;;;8.43;3.90;;;18.20;1.00;;;;;;5079374;28;20438;-72
2022/10/06 07:12:26;;;;;;;6.93;3.60;;;18.30;1.00;;;;;;5080748;28;20183;-71
2022/10/06 07:25:51;;;;;;;9.47;4.03;;;19.10;1.00;;;;;;5082633;28;20485;-71
2022/10/06 07:28:17;;;;;;;6.87;4.27;;;19.10;1.00;;;;;;5088596;28;20488;-71
2022/10/06 07:30:43;;;;;;;6.97;3.73;;;19.20;1.00;;;;;;5082102;28;20444;-71
2022/10/06 07:33:09;;;;;;;5.87;3.30;;;19.10;1.00;;;;;;5090242;28;20630;-71
2022/10/06 07:35:37;;;;;;;13.50;3.20;;;19.20;1.00;;;;;;5081708;28;20462;-72
2022/10/06 07:38:06;;;;;;;7.07;2.73;;;19.10;1.00;;;;;;5083850;28;20779;-70
2022/10/06 07:40:33;;;;;;;9.73;2.70;;;19.20;1.00;;;;;;5075247;28;20437;-71
2022/10/06 07:42:59;;;;;;;5.63;2.60;;;19.30;1.00;;;;;;5085501;28;20461;-70
2022/10/06 07:45:43;;;;;;;5.83;2.80;;;19.40;1.00;;;;;;5079132;28;20442;-71
2022/10/06 07:48:18;;;;;;;7.03;2.27;;;19.60;1.00;;;;;;5089449;28;20233;-72
2022/10/06 07:50:48;;;;;;;10.80;2.47;;;19.70;1.00;;;;;;5080410;28;20424;-71
2022/10/06 07:53:16;;;;;;;4.03;1.93;;;19.90;1.00;;;;;;5089739;28;20418;-72
2022/10/06 07:55:45;;;;;;;5.97;2.30;;;20.10;1.00;;;;;;5083637;28;20436;-71
2022/10/06 07:58:12;;;;;;;6.10;2.03;;;20.30;1.00;;;;;;5089996;28;20441;-71
2022/10/06 08:00:39;;;;;;;4.53;1.70;;;20.30;1.00;;;;;;5085203;28;20866;-71
2022/10/06 08:03:05;;;;;;;5.83;1.87;;;20.30;1.00;;;;;;5077304;28;20917;-71
2022/10/06 08:05:31;;;;;;;6.50;1.83;;;20.20;1.00;;;;;;5081648;28;20471;-71
2022/10/06 08:07:57;;;;;;;4.90;1.70;;;20.10;1.00;;;;;;5084230;28;20171;-71
2022/10/06 08:10:23;;;;;;;5.97;1.80;;;20.20;1.00;;;;;;5089506;28;20326;-71
2022/10/06 08:12:49;;;;;;;4.80;2.03;;;20.40;1.00;;;;;;5086973;28;20445;-71
2022/10/06 08:15:14;;;;;;;5.00;1.70;;;20.60;1.00;;;;;;5077644;28;20492;-71
2022/10/06 08:17:40;;;;;;;4.60;1.80;;;20.90;1.00;;;;;;5082629;28;20716;-71
2022/10/06 08:20:08;;;;;;;7.07;2.00;;;21.00;1.00;;;;;;5092123;28;20201;-72
2022/10/06 08:22:35;;;;;;;4.70;1.80;;;20.90;1.00;;;;;;5086131;28;20196;-70
2022/10/06 08:25:00;;;;;;;5.77;1.80;;;20.90;1.00;;;;;;5091533;28;20504;-71
2022/10/06 08:27:27;;;;;;;11.20;1.87;;;20.90;1.00;;;;;;5085526;28;20527;-71
2022/10/06 08:29:53;;;;;;;6.93;1.50;;;21.00;1.00;;;;;;5081665;28;20218;-72
2022/10/06 08:32:20;;;;;;;5.77;2.00;;;20.90;1.00;;;;;;5082870;28;20422;-71
2022/10/06 08:34:46;;;;;;;5.10;1.60;;;20.90;1.00;;;;;;5074080;28;20674;-71
2022/10/06 08:37:13;;;;;;;3.70;1.70;;;21.10;1.00;;;;;;5089341;28;20426;-71
2022/10/06 08:39:40;;;;;;;6.77;1.60;;;21.00;1.00;;;;;;5080078;28;20537;-71
2022/10/06 08:42:11;;;;;;;6.60;1.80;;;22.00;1.00;;;;;;5083296;28;20461;-71
2022/10/06 08:44:45;;;;;;;11.70;1.87;;;22.30;1.00;;;;;;5090500;28;20433;-71
2022/10/06 08:47:17;;;;;;;8.70;1.87;;;22.10;1.00;;;;;;5083251;28;20453;-71
2022/10/06 08:49:47;;;;;;;10.90;2.23;;;21.90;1.00;;;;;;5092506;28;20413;-71
2022/10/06 08:52:35;;;;;;;6.60;1.97;;;21.10;1.00;;;;;;5086195;28;20435;-71
2022/10/06 08:55:03;;;;;;;7.20;1.77;;;20.80;1.00;;;;;;5085077;28;20445;-71
2022/10/06 08:57:53;;;;;;;8.10;1.80;;;22.20;1.00;;;;;;5090294;28;20436;-72
2022/10/06 09:00:19;;;;;;;9.47;1.97;;;23.50;1.00;;;;;;5083353;28;20957;-71
2022/10/06 09:02:47;;;;;;;12.30;2.17;;;24.30;1.00;;;;;;5083850;28;20465;-71
2022/10/06 09:05:22;;;;;;;9.47;2.07;;;24.50;1.00;;;;;;5087610;28;20258;-72
2022/10/06 09:08:04;;;;;;;5.97;1.70;;;23.60;1.00;;;;;;5079083;28;20995;-71
2022/10/06 09:10:30;;;;;;;4.67;1.40;;;22.30;1.00;;;;;;5091969;28;20425;-72
2022/10/06 09:13:02;;;;;;;7.20;1.87;;;21.90;1.00;;;;;;5083985;28;20528;-72
2022/10/06 09:15:49;;;;;;;6.20;2.20;;;23.00;1.00;;;;;;5077283;28;20511;-71
2022/10/06 09:18:33;;;;;;;9.40;1.90;;;24.60;1.00;;;;;;5078295;28;20428;-72
2022/10/06 09:21:11;;;;;;;6.57;1.80;;;25.40;1.00;;;;;;5084000;28;20429;-72
2022/10/06 09:23:49;;;;;;;7.57;2.20;;;26.40;1.00;;;;;;5081299;28;20465;-72
2022/10/06 09:26:27;;;;;;;6.37;1.90;;;28.00;1.00;;;;;;5086257;28;20426;-72
2022/10/06 09:28:53;;;;;;;7.70;2.07;;;29.00;1.00;;;;;;5088460;28;20679;-72
2022/10/06 09:31:28;;;;;;;7.10;1.70;;;29.00;1.00;;;;;;5080261;28;20649;-71
2022/10/06 09:33:58;;;;;;;5.32;2.15;;;29.70;1.00;;;;;;5092150;28;20183;-72
2022/10/06 09:36:24;;;;;;;8.95;2.20;;;31.40;1.00;;;;;;5086639;28;20211;-72
2022/10/06 09:38:54;;;;;;;4.90;2.15;;;31.10;1.00;;;;;;5091790;28;20187;-72
2022/10/06 09:41:36;;;;;;;7.68;2.00;;;30.50;1.00;;;;;;5077353;28;20254;-72
2022/10/06 09:44:20;;;;;;;7.10;2.10;;;29.10;1.00;;;;;;5080527;28;20207;-73
2022/10/06 09:46:46;;;;;;;4.47;1.80;;;27.70;1.00;;;;;;5085323;28;20182;-72
2022/10/06 09:49:16;;;;;;;5.80;2.10;;;28.50;1.00;;;;;;5087606;28;20195;-72
2022/10/06 09:52:08;;;;;;;7.37;1.80;;;27.50;1.00;;;;;;5086613;28;20179;-71
2022/10/06 09:54:33;;;;;;;7.40;2.17;;;26.60;1.00;;;;;;5082957;28;20171;-72
2022/10/06 09:57:14;;;;;;;8.07;2.10;;;27.60;1.00;;;;;;5092157;28;20167;-72
2022/10/06 09:59:43;;;;;;;4.80;1.80;;;28.90;1.00;;;;;;5085118;28;20210;-72
2022/10/06 10:02:39;;;;;;;6.53;2.00;;;29.20;1.00;;;;;;5091480;28;20697;-72
2022/10/06 10:05:17;;;;;;;6.03;2.20;;;28.90;1.00;;;;;;5083770;28;20645;-72
2022/10/06 10:07:44;;;;;;;5.93;1.60;;;28.90;1.00;;;;;;5089485;28;20178;-72
2022/10/06 10:10:22;;;;;;;4.93;1.97;;;29.40;1.00;;;;;;5090684;28;20546;-72
2022/10/06 10:12:52;;;;;;;7.07;2.13;;;29.80;1.00;;;;;;5079826;28;20188;-72
2022/10/06 10:15:18;;;;;;;8.68;2.08;;;30.00;1.00;;;;;;5086702;28;20316;-72
2022/10/06 10:17:50;;;;;;;7.67;2.20;;;29.70;1.00;;;;;;5092640;28;20258;-71
2022/10/06 10:20:37;;;;;;;8.80;2.63;;;29.10;1.00;;;;;;5084102;28;20716;-72
2022/10/06 10:23:29;;;;;;;6.67;2.00;;;29.10;1.00;;;;;;5090579;28;20577;-72
2022/10/06 10:26:31;;;;;;;6.30;1.77;;;28.90;1.00;;;;;;5078324;28;20187;-72
2022/10/06 10:29:29;;;;;;;6.10;1.87;;;29.40;1.00;;;;;;5089580;28;20257;-72
2022/10/06 10:32:11;;;;;;;8.32;1.92;;;29.80;1.00;;;;;;5085591;28;20657;-72
2022/10/06 10:35:02;;;;;;;8.23;2.38;;;31.60;1.00;;;;;;5087585;28;20197;-72
2022/10/06 10:37:50;;;;;;;10.05;2.13;;;33.60;1.00;;;;;;5083953;28;21031;-72
2022/10/06 10:40:22;;;;;;;7.25;1.90;;;34.70;1.00;;;;;;5084358;28;20212;-74
2022/10/06 10:42:57;;;;;;;5.97;2.20;;;35.10;1.00;;;;;;5084779;28;20218;-73
2022/10/06 10:45:31;;;;;;;11.55;2.20;;;36.20;1.00;;;;;;5084917;28;20731;-73
2022/10/06 10:47:59;;;;;;;7.40;2.00;;;37.30;1.00;;;;;;5086609;28;20175;-73
2022/10/06 10:50:42;;;;;;;7.47;2.17;;;38.00;1.00;;;;;;5077073;28;20689;-74
2022/10/06 10:53:17;;;;;;;7.00;2.00;;;38.80;1.00;;;;;;5079319;28;20669;-73
2022/10/06 10:55:49;;;;;;;7.85;2.28;;;39.80;1.00;;;;;;5088161;28;20189;-73
2022/10/06 10:58:40;;;;;;;12.02;2.40;;;39.80;1.00;;;;;;5078454;28;20186;-73
2022/10/06 11:01:28;;;;;;;5.82;1.98;;;39.30;1.00;;;;;;5088903;28;20198;-73
2022/10/06 11:03:57;;;;;;;11.93;2.33;;;38.10;1.00;;;;;;5084862;28;20198;-73
2022/10/06 11:06:47;;;;;;;13.80;1.90;;;35.10;1.00;;;;;;5074142;28;20180;-72
2022/10/06 11:09:18;;;;;;;15.32;2.17;;;32.70;1.00;;;;;;5083192;28;20647;-72
2022/10/06 11:11:49;;;;;;;6.60;1.88;;;30.80;1.00;;;;;;5079222;28;20200;-72
2022/10/06 11:14:35;;;;;;;7.65;2.35;;;28.70;1.00;;;;;;5080337;28;20176;-71
2022/10/06 11:17:24;;;;;;;6.97;2.38;;;28.00;1.00;;;;;;5088881;28;20171;-73
2022/10/06 11:19:55;;;;;;;7.55;1.80;;;31.20;1.00;;;;;;5079587;28;20202;-72
2022/10/06 11:22:32;;;;;;;6.13;1.92;;;33.40;1.00;;;;;;5082334;28;20203;-74
2022/10/06 11:25:27;;;;;;;12.20;2.10;;;34.00;1.00;;;;;;5081041;28;20163;-73
2022/10/06 11:28:15;;;;;;;5.00;1.52;;;33.60;1.00;;;;;;5083740;28;20194;-75
2022/10/06 11:31:02;;;;;;;10.25;2.05;;;33.40;1.00;;;;;;5077616;28;20219;-75
2022/10/06 11:33:47;;;;;;;4.95;1.73;;;32.50;1.00;;;;;;5088082;28;20189;-75
2022/10/06 11:36:28;;;;;;;4.63;1.50;;;33.00;1.00;;;;;;5074918;28;20657;-74
2022/10/06 11:39:01;;;;;;;6.55;2.17;;;34.10;1.00;;;;;;5083636;28;20200;-75
2022/10/06 11:41:37;;;;;;;6.32;1.67;;;35.80;1.00;;;;;;5086769;28;20171;-75
2022/10/06 11:44:03;;;;;;;4.93;1.70;;;36.90;1.00;;;;;;5071384;28;20211;-75
2022/10/06 11:46:48;;;;;;;7.32;1.77;;;37.90;1.00;;;;;;5078474;28;20197;-74
2022/10/06 11:49:29;;;;;;;5.65;1.60;;;38.80;1.00;;;;;;5079714;28;20273;-75
2022/10/06 11:52:00;;;;;;;5.78;1.83;;;39.10;1.00;;;;;;5077716;28;20179;-75
2022/10/06 11:54:50;;;;;;;8.13;2.15;;;39.30;1.00;;;;;;5085616;28;20191;-75
2022/10/06 11:57:21;;;;;;;5.72;1.85;;;39.30;1.00;;;;;;5071220;28;20172;-75
2022/10/06 12:00:14;;;;;;;7.63;1.98;;;39.00;1.00;;;;;;5086105;28;20191;-75
2022/10/06 12:02:41;;;;;;;4.72;1.70;;;37.90;1.00;;;;;;5074382;28;20577;-75
2022/10/06 12:05:13;;;;;;;11.73;1.90;;;38.70;1.00;;;;;;5089798;28;20212;-76
2022/10/06 12:08:02;;;;;;;6.43;2.03;;;39.60;1.00;;;;;;5086483;28;20182;-75
2022/10/06 12:10:27;;;;;;;8.77;1.92;;;39.70;1.00;;;;;;5089405;28;20563;-75
2022/10/06 12:13:28;;;;;;;4.82;1.88;;;39.30;1.00;;;;;;5085829;28;20304;-75
2022/10/06 12:16:22;;;;;;;6.72;2.10;;;38.00;1.00;;;;;;5088907;28;20179;-75
2022/10/06 12:19:00;;;;;;;4.50;1.70;;;36.90;1.00;;;;;;5078798;28;20195;-74
2022/10/06 12:21:44;;;;;;;9.07;1.80;;;35.90;1.00;;;;;;5084488;28;20203;-74
2022/10/06 12:24:40;;;;;;;8.27;1.90;;;35.30;1.00;;;;;;5084122;28;20257;-73
2022/10/06 12:27:34;;;;;;;8.35;1.85;;;35.20;1.00;;;;;;5087729;28;20171;-74
2022/10/06 12:30:17;;;;;;;5.47;1.70;;;35.20;1.00;;;;;;5087813;28;20199;-74
2022/10/06 12:33:02;;;;;;;6.00;1.85;;;35.20;1.00;;;;;;5087499;28;20989;-75
2022/10/06 12:35:31;;;;;;;5.45;1.60;;;35.10;1.00;;;;;;5087436;28;20221;-75
2022/10/06 12:38:04;;;;;;;6.03;1.80;;;35.00;1.00;;;;;;5089863;28;20573;-74
2022/10/06 12:40:40;;;;;;;8.45;1.95;;;35.30;1.00;;;;;;5085705;28;20199;-73
2022/10/06 12:43:13;;;;;;;5.50;1.95;;;35.20;1.00;;;;;;5082513;28;20555;-74
2022/10/06 12:45:42;;;;;;;7.93;2.10;;;35.30;1.00;;;;;;5086015;28;20483;-75
2022/10/06 12:48:25;;;;;;;3.95;1.70;;;34.60;1.00;;;;;;5082485;28;20226;-74
2022/10/06 12:50:58;;;;;;;4.57;1.58;;;34.90;1.00;;;;;;5082276;28;20172;-74
2022/10/06 12:53:31;;;;;;;5.88;1.90;;;35.70;1.00;;;;;;5089666;28;20175;-74
2022/10/06 12:56:02;;;;;;;5.20;1.48;;;36.80;1.00;;;;;;5082927;28;20487;-74
2022/10/06 12:58:32;;;;;;;4.63;1.60;;;37.30;1.00;;;;;;5076590;28;20200;-75
2022/10/06 13:01:10;;;;;;;8.15;1.80;;;37.60;1.00;;;;;;5079570;28;21681;-75
2022/10/06 13:03:36;;;;;;;5.07;1.75;;;37.60;1.00;;;;;;5072789;28;20218;-74
2022/10/06 13:06:04;;;;;;;4.95;1.77;;;37.90;1.00;;;;;;5088483;28;20211;-74
2022/10/06 13:08:33;;;;;;;5.82;1.35;;;38.90;1.00;;;;;;5088405;28;20248;-75
2022/10/06 13:11:19;;;;;;;6.07;1.70;;;39.60;1.00;;;;;;5091564;28;20217;-75
2022/10/06 13:13:57;;;;;;;10.40;1.70;;;39.30;1.00;;;;;;5085646;28;20187;-75
2022/10/06 13:16:28;;;;;;;4.72;1.52;;;38.60;1.00;;;;;;5077915;28;20229;-75
2022/10/06 13:18:59;;;;;;;5.20;1.42;;;38.00;1.00;;;;;;5085233;28;20269;-75
2022/10/06 13:21:28;;;;;;;6.10;1.63;;;37.60;1.00;;;;;;5091126;28;20707;-74
2022/10/06 13:23:54;;;;;;;4.60;1.67;;;37.40;1.00;;;;;;5087577;28;20223;-75
2022/10/06 13:26:25;;;;;;;7.68;1.75;;;36.30;1.00;;;;;;5092435;28;20544;-74